sensor_id;sensor_type;location;lat;lon;timestamp;P1;durP1;ratioP1;P2;durP2;ratioP2
24277;SDS011;12394;42.692;23.314;2023-12-22T00:01:06;28.80;;;16.73;;
24277;SDS011;12394;42.692;23.314;2023-12-22T00:03:31;30.87;;;16.30;;
24277;SDS011;12394;42.692;23.314;2023-12-22T00:05:57;33.70;;;17.87;;
24277;SDS011;12394;42.692;23.314;2023-12-22T00:08:22;29.07;;;17.83;;
24277;SDS011;12394;42.692;23.314;2023-12-22T00:10:51;27.77;;;17.63;;
24277;SDS011;12394;42.692;23.314;2023-12-22T00:13:16;30.20;;;18.40;;
24277;SDS011;12394;42.692;23.314;2023-12-22T00:15:42;28.60;;;18.00;;
24277;SDS011;12394;42.692;23.314;2023-12-22T00:18:08;30.27;;;18.23;;
24277;SDS011;12394;42.692;23.314;2023-12-22T00:20:33;33.27;;;17.33;;
24277;SDS011;12394;42.692;23.314;2023-12-22T00:22:59;35.33;;;19.97;;
24277;SDS011;12394;42.692;23.314;2023-12-22T00:25:25;28.20;;;17.40;;
24277;SDS011;12394;42.692;23.314;2023-12-22T00:27:51;31.73;;;18.67;;
24277;SDS011;12394;42.692;23.314;2023-12-22T00:30:16;31.30;;;17.23;;
24277;SDS011;12394;42.692;23.314;2023-12-22T00:32:42;31.80;;;18.50;;
24277;SDS011;12394;42.692;23.314;2023-12-22T00:35:08;31.00;;;18.00;;
24277;SDS011;12394;42.692;23.314;2023-12-22T00:37:33;29.30;;;18.20;;
24277;SDS011;12394;42.692;23.314;2023-12-22T00:39:59;28.10;;;17.03;;
24277;SDS011;12394;42.692;23.314;2023-12-22T00:42:24;30.63;;;17.60;;
24277;SDS011;12394;42.692;23.314;2023-12-22T00:44:50;31.47;;;17.97;;
24277;SDS011;12394;42.692;23.314;2023-12-22T00:47:16;27.30;;;18.03;;
24277;SDS011;12394;42.692;23.314;2023-12-22T00:49:42;28.63;;;16.77;;
24277;SDS011;12394;42.692;23.314;2023-12-22T00:52:07;31.73;;;18.37;;
24277;SDS011;12394;42.692;23.314;2023-12-22T00:54:33;28.83;;;17.53;;
24277;SDS011;12394;42.692;23.314;2023-12-22T00:56:58;30.73;;;18.93;;
24277;SDS011;12394;42.692;23.314;2023-12-22T00:59:24;29.73;;;16.87;;
24277;SDS011;12394;42.692;23.314;2023-12-22T01:01:49;30.27;;;18.17;;
24277;SDS011;12394;42.692;23.314;2023-12-22T01:04:15;25.10;;;16.73;;
24277;SDS011;12394;42.692;23.314;2023-12-22T01:06:41;30.63;;;16.97;;
24277;SDS011;12394;42.692;23.314;2023-12-22T01:09:06;29.53;;;17.07;;
24277;SDS011;12394;42.692;23.314;2023-12-22T01:11:32;25.93;;;14.40;;
24277;SDS011;12394;42.692;23.314;2023-12-22T01:13:58;30.93;;;14.20;;
24277;SDS011;12394;42.692;23.314;2023-12-22T01:16:23;26.07;;;14.37;;
24277;SDS011;12394;42.692;23.314;2023-12-22T01:18:49;23.70;;;15.70;;
24277;SDS011;12394;42.692;23.314;2023-12-22T01:21:15;26.70;;;15.10;;
24277;SDS011;12394;42.692;23.314;2023-12-22T01:23:41;24.87;;;14.77;;
24277;SDS011;12394;42.692;23.314;2023-12-22T01:26:07;19.73;;;13.87;;
24277;SDS011;12394;42.692;23.314;2023-12-22T01:28:35;24.07;;;14.53;;
24277;SDS011;12394;42.692;23.314;2023-12-22T01:31:01;24.13;;;14.83;;
24277;SDS011;12394;42.692;23.314;2023-12-22T01:33:28;21.13;;;13.73;;
24277;SDS011;12394;42.692;23.314;2023-12-22T01:35:54;24.87;;;14.63;;
24277;SDS011;12394;42.692;23.314;2023-12-22T01:38:20;26.87;;;14.30;;
24277;SDS011;12394;42.692;23.314;2023-12-22T01:40:45;24.57;;;14.83;;
24277;SDS011;12394;42.692;23.314;2023-12-22T01:43:11;28.03;;;14.83;;
24277;SDS011;12394;42.692;23.314;2023-12-22T01:45:38;23.47;;;14.10;;
24277;SDS011;12394;42.692;23.314;2023-12-22T01:48:04;24.43;;;14.97;;
24277;SDS011;12394;42.692;23.314;2023-12-22T01:50:29;28.77;;;16.00;;
24277;SDS011;12394;42.692;23.314;2023-12-22T01:52:55;27.93;;;15.77;;
24277;SDS011;12394;42.692;23.314;2023-12-22T01:55:22;24.70;;;15.77;;
24277;SDS011;12394;42.692;23.314;2023-12-22T01:57:48;23.27;;;13.93;;
24277;SDS011;12394;42.692;23.314;2023-12-22T02:00:14;28.00;;;15.17;;
24277;SDS011;12394;42.692;23.314;2023-12-22T02:02:40;26.50;;;15.63;;
24277;SDS011;12394;42.692;23.314;2023-12-22T02:05:09;25.97;;;14.97;;
24277;SDS011;12394;42.692;23.314;2023-12-22T02:07:37;22.30;;;15.23;;
24277;SDS011;12394;42.692;23.314;2023-12-22T02:10:07;25.60;;;14.73;;
24277;SDS011;12394;42.692;23.314;2023-12-22T02:12:33;21.43;;;13.83;;
24277;SDS011;12394;42.692;23.314;2023-12-22T02:14:59;26.30;;;14.73;;
24277;SDS011;12394;42.692;23.314;2023-12-22T02:17:26;27.33;;;15.30;;
24277;SDS011;12394;42.692;23.314;2023-12-22T02:19:59;31.73;;;16.87;;
24277;SDS011;12394;42.692;23.314;2023-12-22T02:22:28;25.60;;;14.07;;
24277;SDS011;12394;42.692;23.314;2023-12-22T02:24:54;29.27;;;14.00;;
24277;SDS011;12394;42.692;23.314;2023-12-22T02:27:25;23.67;;;14.53;;
24277;SDS011;12394;42.692;23.314;2023-12-22T02:30:03;23.13;;;15.77;;
24277;SDS011;12394;42.692;23.314;2023-12-22T02:32:53;25.93;;;15.83;;
24277;SDS011;12394;42.692;23.314;2023-12-22T02:35:23;30.77;;;15.87;;
24277;SDS011;12394;42.692;23.314;2023-12-22T02:37:51;30.07;;;17.77;;
24277;SDS011;12394;42.692;23.314;2023-12-22T02:40:18;27.50;;;16.70;;
24277;SDS011;12394;42.692;23.314;2023-12-22T02:42:45;27.83;;;17.67;;
24277;SDS011;12394;42.692;23.314;2023-12-22T02:45:15;26.17;;;17.00;;
24277;SDS011;12394;42.692;23.314;2023-12-22T02:47:42;27.03;;;17.30;;
24277;SDS011;12394;42.692;23.314;2023-12-22T02:50:09;29.70;;;18.13;;
24277;SDS011;12394;42.692;23.314;2023-12-22T02:52:35;31.53;;;18.90;;
24277;SDS011;12394;42.692;23.314;2023-12-22T02:55:01;39.03;;;20.63;;
24277;SDS011;12394;42.692;23.314;2023-12-22T02:57:27;29.37;;;17.77;;
24277;SDS011;12394;42.692;23.314;2023-12-22T02:59:52;32.10;;;18.83;;
24277;SDS011;12394;42.692;23.314;2023-12-22T03:02:18;35.30;;;19.23;;
24277;SDS011;12394;42.692;23.314;2023-12-22T03:04:43;32.03;;;19.50;;
24277;SDS011;12394;42.692;23.314;2023-12-22T03:07:11;29.27;;;19.00;;
24277;SDS011;12394;42.692;23.314;2023-12-22T03:09:37;31.50;;;20.13;;
24277;SDS011;12394;42.692;23.314;2023-12-22T03:12:02;29.20;;;18.93;;
24277;SDS011;12394;42.692;23.314;2023-12-22T03:14:31;34.67;;;20.57;;
24277;SDS011;12394;42.692;23.314;2023-12-22T03:17:01;31.77;;;18.83;;
24277;SDS011;12394;42.692;23.314;2023-12-22T03:19:30;30.33;;;19.27;;
24277;SDS011;12394;42.692;23.314;2023-12-22T03:21:56;34.03;;;19.23;;
24277;SDS011;12394;42.692;23.314;2023-12-22T03:24:22;36.33;;;19.90;;
24277;SDS011;12394;42.692;23.314;2023-12-22T03:26:56;31.17;;;18.90;;
24277;SDS011;12394;42.692;23.314;2023-12-22T03:29:22;31.03;;;17.67;;
24277;SDS011;12394;42.692;23.314;2023-12-22T03:31:48;34.00;;;17.57;;
24277;SDS011;12394;42.692;23.314;2023-12-22T03:34:13;30.50;;;17.20;;
24277;SDS011;12394;42.692;23.314;2023-12-22T03:36:39;32.13;;;17.60;;
24277;SDS011;12394;42.692;23.314;2023-12-22T03:39:05;27.10;;;16.27;;
24277;SDS011;12394;42.692;23.314;2023-12-22T03:41:30;33.03;;;16.70;;
24277;SDS011;12394;42.692;23.314;2023-12-22T03:43:56;33.93;;;16.57;;
24277;SDS011;12394;42.692;23.314;2023-12-22T03:46:22;26.03;;;16.00;;
24277;SDS011;12394;42.692;23.314;2023-12-22T03:48:48;29.93;;;16.10;;
24277;SDS011;12394;42.692;23.314;2023-12-22T03:51:14;26.30;;;16.30;;
24277;SDS011;12394;42.692;23.314;2023-12-22T03:53:40;28.03;;;15.97;;
24277;SDS011;12394;42.692;23.314;2023-12-22T03:56:07;29.03;;;15.67;;
24277;SDS011;12394;42.692;23.314;2023-12-22T03:58:34;23.87;;;16.60;;
24277;SDS011;12394;42.692;23.314;2023-12-22T04:00:59;26.87;;;16.30;;
24277;SDS011;12394;42.692;23.314;2023-12-22T04:03:25;28.07;;;16.20;;
24277;SDS011;12394;42.692;23.314;2023-12-22T04:05:51;28.23;;;17.23;;
24277;SDS011;12394;42.692;23.314;2023-12-22T04:08:17;24.57;;;16.07;;
24277;SDS011;12394;42.692;23.314;2023-12-22T04:10:42;27.13;;;16.70;;
24277;SDS011;12394;42.692;23.314;2023-12-22T04:13:09;23.93;;;14.80;;
24277;SDS011;12394;42.692;23.314;2023-12-22T04:15:35;26.23;;;16.47;;
24277;SDS011;12394;42.692;23.314;2023-12-22T04:18:00;24.97;;;14.07;;
24277;SDS011;12394;42.692;23.314;2023-12-22T04:20:26;25.10;;;15.27;;
24277;SDS011;12394;42.692;23.314;2023-12-22T04:22:51;20.77;;;14.23;;
24277;SDS011;12394;42.692;23.314;2023-12-22T04:25:16;21.23;;;14.23;;
24277;SDS011;12394;42.692;23.314;2023-12-22T04:27:43;22.57;;;14.30;;
24277;SDS011;12394;42.692;23.314;2023-12-22T04:30:08;24.90;;;15.00;;
24277;SDS011;12394;42.692;23.314;2023-12-22T04:32:34;22.50;;;14.80;;
24277;SDS011;12394;42.692;23.314;2023-12-22T04:34:59;23.53;;;14.07;;
24277;SDS011;12394;42.692;23.314;2023-12-22T04:37:25;24.00;;;13.87;;
24277;SDS011;12394;42.692;23.314;2023-12-22T04:39:51;23.33;;;14.37;;
24277;SDS011;12394;42.692;23.314;2023-12-22T04:42:16;28.27;;;15.27;;
24277;SDS011;12394;42.692;23.314;2023-12-22T04:44:42;23.70;;;14.97;;
24277;SDS011;12394;42.692;23.314;2023-12-22T04:47:07;24.73;;;15.57;;
24277;SDS011;12394;42.692;23.314;2023-12-22T04:49:33;25.60;;;15.03;;
24277;SDS011;12394;42.692;23.314;2023-12-22T04:51:58;25.60;;;14.17;;
24277;SDS011;12394;42.692;23.314;2023-12-22T04:54:23;28.57;;;15.20;;
24277;SDS011;12394;42.692;23.314;2023-12-22T04:56:49;25.27;;;15.27;;
24277;SDS011;12394;42.692;23.314;2023-12-22T04:59:14;28.87;;;16.93;;
24277;SDS011;12394;42.692;23.314;2023-12-22T05:01:40;20.40;;;14.30;;
24277;SDS011;12394;42.692;23.314;2023-12-22T05:04:05;20.30;;;13.30;;
24277;SDS011;12394;42.692;23.314;2023-12-22T05:06:31;24.00;;;13.73;;
24277;SDS011;12394;42.692;23.314;2023-12-22T05:08:56;25.50;;;14.70;;
24277;SDS011;12394;42.692;23.314;2023-12-22T05:11:22;24.73;;;15.30;;
24277;SDS011;12394;42.692;23.314;2023-12-22T05:13:48;22.23;;;15.80;;
24277;SDS011;12394;42.692;23.314;2023-12-22T05:16:13;31.17;;;16.23;;
24277;SDS011;12394;42.692;23.314;2023-12-22T05:18:39;27.20;;;15.67;;
24277;SDS011;12394;42.692;23.314;2023-12-22T05:21:05;28.63;;;14.73;;
24277;SDS011;12394;42.692;23.314;2023-12-22T05:23:30;22.43;;;14.20;;
24277;SDS011;12394;42.692;23.314;2023-12-22T05:25:56;24.83;;;15.37;;
24277;SDS011;12394;42.692;23.314;2023-12-22T05:28:21;25.57;;;15.77;;
24277;SDS011;12394;42.692;23.314;2023-12-22T05:30:47;24.90;;;15.83;;
24277;SDS011;12394;42.692;23.314;2023-12-22T05:33:12;23.30;;;14.20;;
24277;SDS011;12394;42.692;23.314;2023-12-22T05:35:38;26.43;;;15.50;;
24277;SDS011;12394;42.692;23.314;2023-12-22T05:38:03;27.13;;;15.87;;
24277;SDS011;12394;42.692;23.314;2023-12-22T05:40:31;31.30;;;16.17;;
24277;SDS011;12394;42.692;23.314;2023-12-22T05:42:57;21.87;;;14.63;;
24277;SDS011;12394;42.692;23.314;2023-12-22T05:45:22;27.00;;;17.17;;
24277;SDS011;12394;42.692;23.314;2023-12-22T05:47:50;27.00;;;17.00;;
24277;SDS011;12394;42.692;23.314;2023-12-22T05:50:15;21.90;;;15.30;;
24277;SDS011;12394;42.692;23.314;2023-12-22T05:52:41;31.30;;;17.17;;
24277;SDS011;12394;42.692;23.314;2023-12-22T05:55:09;29.90;;;17.73;;
24277;SDS011;12394;42.692;23.314;2023-12-22T05:57:34;28.23;;;16.57;;
24277;SDS011;12394;42.692;23.314;2023-12-22T06:00:00;24.30;;;16.07;;
24277;SDS011;12394;42.692;23.314;2023-12-22T06:02:25;31.27;;;18.77;;
24277;SDS011;12394;42.692;23.314;2023-12-22T06:04:51;25.23;;;15.90;;
24277;SDS011;12394;42.692;23.314;2023-12-22T06:07:16;29.43;;;19.40;;
24277;SDS011;12394;42.692;23.314;2023-12-22T06:09:42;24.63;;;15.93;;
24277;SDS011;12394;42.692;23.314;2023-12-22T06:12:07;23.90;;;15.57;;
24277;SDS011;12394;42.692;23.314;2023-12-22T06:14:33;25.57;;;16.70;;
24277;SDS011;12394;42.692;23.314;2023-12-22T06:17:00;27.33;;;17.00;;
24277;SDS011;12394;42.692;23.314;2023-12-22T06:19:25;26.67;;;16.40;;
24277;SDS011;12394;42.692;23.314;2023-12-22T06:21:53;21.53;;;14.43;;
24277;SDS011;12394;42.692;23.314;2023-12-22T06:24:19;25.07;;;15.80;;
24277;SDS011;12394;42.692;23.314;2023-12-22T06:26:44;26.87;;;16.37;;
24277;SDS011;12394;42.692;23.314;2023-12-22T06:29:10;30.20;;;16.80;;
24277;SDS011;12394;42.692;23.314;2023-12-22T06:31:35;26.90;;;15.70;;
24277;SDS011;12394;42.692;23.314;2023-12-22T06:34:01;46.60;;;27.83;;
24277;SDS011;12394;42.692;23.314;2023-12-22T06:36:27;24.93;;;15.77;;
24277;SDS011;12394;42.692;23.314;2023-12-22T06:38:55;24.23;;;15.97;;
24277;SDS011;12394;42.692;23.314;2023-12-22T06:41:24;29.90;;;16.87;;
24277;SDS011;12394;42.692;23.314;2023-12-22T06:43:51;24.67;;;16.93;;
24277;SDS011;12394;42.692;23.314;2023-12-22T06:46:17;25.43;;;16.57;;
24277;SDS011;12394;42.692;23.314;2023-12-22T06:48:43;26.47;;;16.03;;
24277;SDS011;12394;42.692;23.314;2023-12-22T06:51:26;33.30;;;20.23;;
24277;SDS011;12394;42.692;23.314;2023-12-22T06:53:53;29.30;;;16.77;;
24277;SDS011;12394;42.692;23.314;2023-12-22T06:58:46;25.83;;;16.03;;
24277;SDS011;12394;42.692;23.314;2023-12-22T07:03:47;28.20;;;16.80;;
24277;SDS011;12394;42.692;23.314;2023-12-22T07:06:14;28.60;;;17.70;;
24277;SDS011;12394;42.692;23.314;2023-12-22T07:11:51;28.60;;;17.10;;
24277;SDS011;12394;42.692;23.314;2023-12-22T07:14:20;34.67;;;18.07;;
24277;SDS011;12394;42.692;23.314;2023-12-22T07:16:45;30.80;;;17.20;;
24277;SDS011;12394;42.692;23.314;2023-12-22T07:19:11;25.73;;;18.50;;
24277;SDS011;12394;42.692;23.314;2023-12-22T07:21:39;29.43;;;19.70;;
24277;SDS011;12394;42.692;23.314;2023-12-22T07:24:06;29.80;;;18.90;;
24277;SDS011;12394;42.692;23.314;2023-12-22T07:26:32;26.17;;;16.13;;
24277;SDS011;12394;42.692;23.314;2023-12-22T07:28:57;26.27;;;16.20;;
24277;SDS011;12394;42.692;23.314;2023-12-22T07:31:23;23.47;;;15.50;;
24277;SDS011;12394;42.692;23.314;2023-12-22T07:33:49;24.63;;;15.07;;
24277;SDS011;12394;42.692;23.314;2023-12-22T07:36:15;23.73;;;15.37;;
24277;SDS011;12394;42.692;23.314;2023-12-22T07:38:40;26.53;;;15.30;;
24277;SDS011;12394;42.692;23.314;2023-12-22T07:41:06;23.10;;;14.57;;
24277;SDS011;12394;42.692;23.314;2023-12-22T07:43:32;26.93;;;15.47;;
24277;SDS011;12394;42.692;23.314;2023-12-22T07:45:57;23.27;;;16.03;;
24277;SDS011;12394;42.692;23.314;2023-12-22T07:48:23;24.40;;;15.50;;
24277;SDS011;12394;42.692;23.314;2023-12-22T07:50:51;25.00;;;16.87;;
24277;SDS011;12394;42.692;23.314;2023-12-22T07:53:17;27.37;;;16.00;;
24277;SDS011;12394;42.692;23.314;2023-12-22T07:55:43;44.07;;;25.40;;
24277;SDS011;12394;42.692;23.314;2023-12-22T07:58:09;22.60;;;15.87;;
24277;SDS011;12394;42.692;23.314;2023-12-22T08:00:34;25.57;;;15.50;;
24277;SDS011;12394;42.692;23.314;2023-12-22T08:03:01;26.83;;;15.63;;
24277;SDS011;12394;42.692;23.314;2023-12-22T08:05:27;24.93;;;14.87;;
24277;SDS011;12394;42.692;23.314;2023-12-22T08:07:52;23.37;;;14.97;;
24277;SDS011;12394;42.692;23.314;2023-12-22T08:10:18;27.33;;;16.30;;
24277;SDS011;12394;42.692;23.314;2023-12-22T08:12:44;27.60;;;16.40;;
24277;SDS011;12394;42.692;23.314;2023-12-22T08:15:10;28.90;;;16.37;;
24277;SDS011;12394;42.692;23.314;2023-12-22T08:17:36;31.37;;;17.93;;
24277;SDS011;12394;42.692;23.314;2023-12-22T08:20:03;26.97;;;16.40;;
24277;SDS011;12394;42.692;23.314;2023-12-22T08:22:29;26.20;;;17.60;;
24277;SDS011;12394;42.692;23.314;2023-12-22T08:24:54;32.67;;;20.07;;
24277;SDS011;12394;42.692;23.314;2023-12-22T08:27:20;27.03;;;17.40;;
24277;SDS011;12394;42.692;23.314;2023-12-22T08:29:45;26.30;;;17.27;;
24277;SDS011;12394;42.692;23.314;2023-12-22T08:32:11;29.00;;;17.60;;
24277;SDS011;12394;42.692;23.314;2023-12-22T08:34:36;31.97;;;18.50;;
24277;SDS011;12394;42.692;23.314;2023-12-22T08:37:02;30.10;;;17.37;;
24277;SDS011;12394;42.692;23.314;2023-12-22T08:39:27;23.20;;;16.67;;
24277;SDS011;12394;42.692;23.314;2023-12-22T08:41:53;26.43;;;17.53;;
24277;SDS011;12394;42.692;23.314;2023-12-22T08:44:19;33.73;;;17.60;;
24277;SDS011;12394;42.692;23.314;2023-12-22T08:46:44;26.03;;;16.20;;
24277;SDS011;12394;42.692;23.314;2023-12-22T08:49:10;23.00;;;16.67;;
24277;SDS011;12394;42.692;23.314;2023-12-22T08:51:36;26.00;;;15.80;;
24277;SDS011;12394;42.692;23.314;2023-12-22T08:54:01;25.07;;;17.50;;
24277;SDS011;12394;42.692;23.314;2023-12-22T08:56:27;30.80;;;17.30;;
24277;SDS011;12394;42.692;23.314;2023-12-22T08:58:53;37.73;;;24.97;;
24277;SDS011;12394;42.692;23.314;2023-12-22T09:01:20;28.33;;;17.73;;
24277;SDS011;12394;42.692;23.314;2023-12-22T09:03:47;27.13;;;18.60;;
24277;SDS011;12394;42.692;23.314;2023-12-22T09:06:19;28.30;;;17.43;;
24277;SDS011;12394;42.692;23.314;2023-12-22T09:08:47;30.37;;;16.87;;
24277;SDS011;12394;42.692;23.314;2023-12-22T09:11:13;23.27;;;15.50;;
24277;SDS011;12394;42.692;23.314;2023-12-22T09:13:41;28.77;;;15.90;;
24277;SDS011;12394;42.692;23.314;2023-12-22T09:16:07;27.87;;;15.63;;
24277;SDS011;12394;42.692;23.314;2023-12-22T09:18:33;27.43;;;15.80;;
24277;SDS011;12394;42.692;23.314;2023-12-22T09:21:00;26.33;;;13.80;;
24277;SDS011;12394;42.692;23.314;2023-12-22T09:23:26;23.23;;;14.17;;
24277;SDS011;12394;42.692;23.314;2023-12-22T09:25:52;21.30;;;13.40;;
24277;SDS011;12394;42.692;23.314;2023-12-22T09:28:17;17.07;;;11.33;;
24277;SDS011;12394;42.692;23.314;2023-12-22T09:30:43;19.43;;;11.47;;
24277;SDS011;12394;42.692;23.314;2023-12-22T09:33:11;19.93;;;11.13;;
24277;SDS011;12394;42.692;23.314;2023-12-22T09:35:37;15.23;;;9.70;;
24277;SDS011;12394;42.692;23.314;2023-12-22T09:38:06;26.03;;;12.27;;
24277;SDS011;12394;42.692;23.314;2023-12-22T09:40:32;22.30;;;11.37;;
24277;SDS011;12394;42.692;23.314;2023-12-22T09:43:00;22.30;;;13.43;;
24277;SDS011;12394;42.692;23.314;2023-12-22T09:45:27;19.43;;;13.60;;
24277;SDS011;12394;42.692;23.314;2023-12-22T09:47:55;25.10;;;15.10;;
24277;SDS011;12394;42.692;23.314;2023-12-22T09:50:21;24.87;;;16.13;;
24277;SDS011;12394;42.692;23.314;2023-12-22T09:52:48;29.87;;;19.50;;
24277;SDS011;12394;42.692;23.314;2023-12-22T09:55:13;25.87;;;17.83;;
24277;SDS011;12394;42.692;23.314;2023-12-22T09:57:39;29.43;;;19.27;;
24277;SDS011;12394;42.692;23.314;2023-12-22T10:00:09;29.53;;;20.33;;
24277;SDS011;12394;42.692;23.314;2023-12-22T10:02:37;25.87;;;17.93;;
24277;SDS011;12394;42.692;23.314;2023-12-22T10:05:03;33.77;;;24.37;;
24277;SDS011;12394;42.692;23.314;2023-12-22T10:07:29;30.80;;;18.83;;
24277;SDS011;12394;42.692;23.314;2023-12-22T10:09:55;28.83;;;20.50;;
24277;SDS011;12394;42.692;23.314;2023-12-22T10:12:22;34.67;;;23.40;;
24277;SDS011;12394;42.692;23.314;2023-12-22T10:14:49;31.77;;;19.47;;
24277;SDS011;12394;42.692;23.314;2023-12-22T10:17:15;28.73;;;17.47;;
24277;SDS011;12394;42.692;23.314;2023-12-22T10:19:42;26.47;;;17.60;;
24277;SDS011;12394;42.692;23.314;2023-12-22T10:22:07;22.73;;;14.43;;
24277;SDS011;12394;42.692;23.314;2023-12-22T10:24:43;26.10;;;16.07;;
24277;SDS011;12394;42.692;23.314;2023-12-22T10:27:12;26.23;;;16.73;;
24277;SDS011;12394;42.692;23.314;2023-12-22T10:29:39;18.87;;;13.07;;
24277;SDS011;12394;42.692;23.314;2023-12-22T10:32:05;27.07;;;14.10;;
24277;SDS011;12394;42.692;23.314;2023-12-22T10:34:31;20.77;;;12.90;;
24277;SDS011;12394;42.692;23.314;2023-12-22T10:37:01;28.13;;;11.60;;
24277;SDS011;12394;42.692;23.314;2023-12-22T10:39:29;21.50;;;10.27;;
24277;SDS011;12394;42.692;23.314;2023-12-22T10:41:56;14.93;;;8.20;;
24277;SDS011;12394;42.692;23.314;2023-12-22T10:44:26;11.80;;;7.67;;
24277;SDS011;12394;42.692;23.314;2023-12-22T10:46:52;14.27;;;8.27;;
24277;SDS011;12394;42.692;23.314;2023-12-22T10:49:19;14.43;;;8.20;;
24277;SDS011;12394;42.692;23.314;2023-12-22T10:51:45;10.93;;;7.17;;
24277;SDS011;12394;42.692;23.314;2023-12-22T10:54:11;12.13;;;7.20;;
24277;SDS011;12394;42.692;23.314;2023-12-22T10:56:36;10.63;;;6.40;;
24277;SDS011;12394;42.692;23.314;2023-12-22T10:59:02;12.27;;;6.07;;
24277;SDS011;12394;42.692;23.314;2023-12-22T11:01:30;10.97;;;6.40;;
24277;SDS011;12394;42.692;23.314;2023-12-22T11:03:59;12.07;;;7.40;;
24277;SDS011;12394;42.692;23.314;2023-12-22T11:06:27;14.07;;;8.73;;
24277;SDS011;12394;42.692;23.314;2023-12-22T11:08:56;16.03;;;11.07;;
24277;SDS011;12394;42.692;23.314;2023-12-22T11:11:27;15.77;;;9.17;;
24277;SDS011;12394;42.692;23.314;2023-12-22T11:13:58;12.83;;;10.27;;
24277;SDS011;12394;42.692;23.314;2023-12-22T11:16:24;14.03;;;9.13;;
24277;SDS011;12394;42.692;23.314;2023-12-22T11:18:53;15.37;;;10.00;;
24277;SDS011;12394;42.692;23.314;2023-12-22T11:21:22;13.93;;;8.90;;
24277;SDS011;12394;42.692;23.314;2023-12-22T11:23:50;17.47;;;9.13;;
24277;SDS011;12394;42.692;23.314;2023-12-22T11:26:17;14.87;;;9.33;;
24277;SDS011;12394;42.692;23.314;2023-12-22T11:28:47;10.10;;;7.33;;
24277;SDS011;12394;42.692;23.314;2023-12-22T11:31:14;13.63;;;7.77;;
24277;SDS011;12394;42.692;23.314;2023-12-22T11:33:43;10.90;;;8.17;;
24277;SDS011;12394;42.692;23.314;2023-12-22T11:36:09;7.63;;;5.53;;
24277;SDS011;12394;42.692;23.314;2023-12-22T11:38:37;4.77;;;3.13;;
24277;SDS011;12394;42.692;23.314;2023-12-22T11:41:03;5.43;;;3.50;;
24277;SDS011;12394;42.692;23.314;2023-12-22T11:43:31;3.30;;;2.60;;
24277;SDS011;12394;42.692;23.314;2023-12-22T11:46:01;4.23;;;2.80;;
24277;SDS011;12394;42.692;23.314;2023-12-22T11:48:28;3.63;;;2.47;;
24277;SDS011;12394;42.692;23.314;2023-12-22T11:50:54;5.73;;;2.90;;
24277;SDS011;12394;42.692;23.314;2023-12-22T11:53:23;5.37;;;2.73;;
24277;SDS011;12394;42.692;23.314;2023-12-22T11:55:59;2.60;;;2.00;;
24277;SDS011;12394;42.692;23.314;2023-12-22T11:58:37;2.33;;;1.87;;
24277;SDS011;12394;42.692;23.314;2023-12-22T12:01:16;3.40;;;2.33;;
24277;SDS011;12394;42.692;23.314;2023-12-22T12:03:53;4.47;;;3.17;;
24277;SDS011;12394;42.692;23.314;2023-12-22T12:08:52;5.50;;;4.00;;
24277;SDS011;12394;42.692;23.314;2023-12-22T12:11:18;4.70;;;3.10;;
24277;SDS011;12394;42.692;23.314;2023-12-22T12:13:47;4.93;;;3.43;;
24277;SDS011;12394;42.692;23.314;2023-12-22T12:16:15;4.23;;;2.77;;
24277;SDS011;12394;42.692;23.314;2023-12-22T12:18:44;3.30;;;1.80;;
24277;SDS011;12394;42.692;23.314;2023-12-22T12:21:10;4.73;;;1.80;;
24277;SDS011;12394;42.692;23.314;2023-12-22T12:23:37;2.63;;;1.70;;
24277;SDS011;12394;42.692;23.314;2023-12-22T12:26:04;2.83;;;1.70;;
24277;SDS011;12394;42.692;23.314;2023-12-22T12:28:32;3.37;;;1.57;;
24277;SDS011;12394;42.692;23.314;2023-12-22T12:30:59;3.17;;;1.90;;
24277;SDS011;12394;42.692;23.314;2023-12-22T12:33:26;2.80;;;1.60;;
24277;SDS011;12394;42.692;23.314;2023-12-22T12:35:53;1.97;;;1.50;;
24277;SDS011;12394;42.692;23.314;2023-12-22T12:38:21;1.73;;;1.30;;
24277;SDS011;12394;42.692;23.314;2023-12-22T12:40:53;1.50;;;1.20;;
24277;SDS011;12394;42.692;23.314;2023-12-22T12:43:21;1.73;;;1.53;;
24277;SDS011;12394;42.692;23.314;2023-12-22T12:45:47;2.20;;;1.40;;
24277;SDS011;12394;42.692;23.314;2023-12-22T12:48:14;2.40;;;1.60;;
24277;SDS011;12394;42.692;23.314;2023-12-22T12:50:41;2.30;;;1.70;;
24277;SDS011;12394;42.692;23.314;2023-12-22T12:53:06;1.70;;;1.60;;
24277;SDS011;12394;42.692;23.314;2023-12-22T12:55:32;2.83;;;2.03;;
24277;SDS011;12394;42.692;23.314;2023-12-22T12:57:57;2.60;;;1.67;;
24277;SDS011;12394;42.692;23.314;2023-12-22T13:00:24;3.50;;;1.90;;
24277;SDS011;12394;42.692;23.314;2023-12-22T13:02:53;3.43;;;1.83;;
24277;SDS011;12394;42.692;23.314;2023-12-22T13:05:23;3.40;;;2.13;;
24277;SDS011;12394;42.692;23.314;2023-12-22T13:07:48;5.33;;;2.93;;
24277;SDS011;12394;42.692;23.314;2023-12-22T13:10:24;3.40;;;2.93;;
24277;SDS011;12394;42.692;23.314;2023-12-22T13:12:50;5.37;;;2.87;;
24277;SDS011;12394;42.692;23.314;2023-12-22T13:15:19;4.00;;;2.97;;
24277;SDS011;12394;42.692;23.314;2023-12-22T13:17:46;4.60;;;3.17;;
24277;SDS011;12394;42.692;23.314;2023-12-22T13:20:12;6.40;;;3.50;;
24277;SDS011;12394;42.692;23.314;2023-12-22T13:22:38;6.23;;;3.17;;
24277;SDS011;12394;42.692;23.314;2023-12-22T13:25:04;6.37;;;3.73;;
24277;SDS011;12394;42.692;23.314;2023-12-22T13:27:30;6.47;;;4.10;;
24277;SDS011;12394;42.692;23.314;2023-12-22T13:29:55;6.83;;;3.10;;
24277;SDS011;12394;42.692;23.314;2023-12-22T13:32:21;4.17;;;2.87;;
24277;SDS011;12394;42.692;23.314;2023-12-22T13:34:51;3.80;;;3.40;;
24277;SDS011;12394;42.692;23.314;2023-12-22T13:37:20;5.47;;;3.60;;
24277;SDS011;12394;42.692;23.314;2023-12-22T13:39:46;5.43;;;3.80;;
24277;SDS011;12394;42.692;23.314;2023-12-22T13:42:16;5.57;;;3.97;;
24277;SDS011;12394;42.692;23.314;2023-12-22T13:44:44;9.40;;;4.73;;
24277;SDS011;12394;42.692;23.314;2023-12-22T13:47:17;8.00;;;4.40;;
24277;SDS011;12394;42.692;23.314;2023-12-22T13:49:44;7.33;;;4.83;;
24277;SDS011;12394;42.692;23.314;2023-12-22T13:52:26;7.50;;;4.57;;
24277;SDS011;12394;42.692;23.314;2023-12-22T13:55:00;7.53;;;4.10;;
24277;SDS011;12394;42.692;23.314;2023-12-22T13:57:27;7.23;;;4.43;;
24277;SDS011;12394;42.692;23.314;2023-12-22T13:59:52;7.87;;;4.13;;
24277;SDS011;12394;42.692;23.314;2023-12-22T14:02:24;9.93;;;5.77;;
24277;SDS011;12394;42.692;23.314;2023-12-22T14:04:50;8.90;;;5.23;;
24277;SDS011;12394;42.692;23.314;2023-12-22T14:07:16;6.60;;;3.70;;
24277;SDS011;12394;42.692;23.314;2023-12-22T14:09:42;4.40;;;2.70;;
24277;SDS011;12394;42.692;23.314;2023-12-22T14:12:07;7.87;;;2.73;;
24277;SDS011;12394;42.692;23.314;2023-12-22T14:14:33;4.80;;;2.63;;
24277;SDS011;12394;42.692;23.314;2023-12-22T14:16:58;3.63;;;2.70;;
24277;SDS011;12394;42.692;23.314;2023-12-22T14:19:24;3.60;;;2.60;;
24277;SDS011;12394;42.692;23.314;2023-12-22T14:21:50;3.77;;;2.30;;